San Diego, California
Traffic Map
Current Weather Conditions
San Diego, California
Scattered Clouds
Scattered Clouds
71°
Feels Like: 71°
Wind Chill: 71° Ceiling: Unl
Heat Index: 71° Visibility: 10mi
Dew Point: 62° Wind: 6mph
Humidity: 73% Direction: 300° (WNW)
Pressure: 30.01in Gusts: 0mph
Raw Report DataKSAN 260051Z 30005KT 10SM FEW017 SCT100 SCT200 22/17 A3001 RMK AO2 SLP161 T02170167 $
Traffic Incident Summary
Active as of:
Severity:
Category:
InformationThere was an issue retrieving the traffic information for this location. Please try a different location or try again shortly.
Advertisements
Track Severe Weather on mobile